Terminal Aerodrome Forecast
Issued by NWS

Home | Current Version | Previous Version | Text Only | Print | Product List | Glossary On
Versions: 1 2 3 4 5 6 7 8 9 10 11 12 13 14 15
000
FTUS43 KDTX 030520
TAFPTK
TAF
KPTK 030520Z 0306/0406 VRB03KT P6SM SCT200
     FM030800 VRB02KT 3SM BR SCT250
     FM031200 VRB04KT P6SM SKC
     FM031600 29005KT P6SM SCT045
     FM031900 20005KT P6SM BKN050
     FM040400 24006KT P6SM OVC050=

USA.gov is the U.S. government's official web portal to all federal, state and local government web resources and services.